createdAt,value
2018-08-25T00:00:24.368Z,100481.84
2018-08-25T00:02:53.312Z,100476.20
2018-08-25T00:05:21.366Z,100479.59
2018-08-25T00:07:49.512Z,100475.92
2018-08-25T00:10:17.638Z,100482.86
2018-08-25T00:12:45.767Z,100474.83
2018-08-25T00:15:13.843Z,100476.03
2018-08-25T00:17:41.947Z,100478.27
2018-08-25T00:20:10.021Z,100487.89
2018-08-25T00:22:38.125Z,100485.65
2018-08-25T00:25:06.289Z,100475.02
2018-08-25T00:27:34.412Z,100478.66
2018-08-25T00:30:02.492Z,100478.20
2018-08-25T00:32:30.663Z,100472.21
2018-08-25T00:34:58.813Z,100472.02
2018-08-25T00:37:26.894Z,100467.89
2018-08-25T00:39:54.979Z,100465.11
2018-08-25T00:42:23.131Z,100462.68
2018-08-25T00:44:51.297Z,100466.59
2018-08-25T00:47:19.425Z,100462.09
2018-08-25T00:49:47.570Z,100459.86
2018-08-25T00:52:15.731Z,100456.02
2018-08-25T00:54:43.851Z,100448.64
2018-08-25T00:57:12.001Z,100444.16
2018-08-25T00:59:40.107Z,100438.48
2018-08-25T01:02:08.228Z,100433.61
2018-08-25T01:04:36.389Z,100436.52
2018-08-25T01:07:04.903Z,100432.57
2018-08-25T01:09:33.014Z,100426.89
2018-08-25T01:12:01.127Z,100427.16
2018-08-25T01:14:29.271Z,100421.55
2018-08-25T01:16:57.411Z,100419.56
2018-08-25T01:19:25.556Z,100420.03
2018-08-25T01:21:53.701Z,100421.25
2018-08-25T01:24:21.830Z,100418.38
2018-08-25T01:26:49.973Z,100406.70
2018-08-25T01:29:18.077Z,100410.05
2018-08-25T01:31:46.180Z,100404.36
2018-08-25T01:34:14.288Z,100401.72
2018-08-25T01:36:42.414Z,100403.66
2018-08-25T01:39:10.568Z,100397.23
2018-08-25T01:41:38.729Z,100392.64
2018-08-25T01:44:06.872Z,100393.42
2018-08-25T01:46:35.003Z,100390.98
2018-08-25T01:49:03.289Z,100390.69
2018-08-25T01:51:31.409Z,100393.31
2018-08-25T01:53:59.837Z,100403.82
2018-08-25T01:56:27.931Z,100404.39
2018-08-25T01:58:56.032Z,100408.02
2018-08-25T02:01:24.979Z,100399.29
2018-08-25T02:03:53.108Z,100401.98
2018-08-25T02:06:21.198Z,100401.86
2018-08-25T02:08:49.385Z,100392.80
2018-08-25T02:11:17.621Z,100386.83
2018-08-25T02:13:46.125Z,100393.15
2018-08-25T02:16:14.259Z,100385.86
2018-08-25T02:18:42.398Z,100382.41
2018-08-25T02:21:10.552Z,100375.50
2018-08-25T02:23:38.691Z,100373.91
2018-08-25T02:26:06.796Z,100369.81
2018-08-25T02:28:34.905Z,100365.81
2018-08-25T02:31:03.052Z,100367.46
2018-08-25T02:33:31.228Z,100363.45
2018-08-25T02:35:59.418Z,100352.46
2018-08-25T02:38:27.523Z,100350.02
2018-08-25T02:40:55.630Z,100355.20
2018-08-25T02:43:23.720Z,100354.66
2018-08-25T02:45:51.817Z,100356.97
2018-08-25T02:48:19.980Z,100358.83
2018-08-25T02:50:48.077Z,100351.16
2018-08-25T02:53:16.176Z,100350.83
2018-08-25T02:55:44.284Z,100352.30
2018-08-25T02:58:12.384Z,100350.45
2018-08-25T03:00:40.528Z,100358.19
2018-08-25T03:08:03.390Z,100356.67
2018-08-25T03:10:31.485Z,100360.12
2018-08-25T03:12:59.610Z,100357.52
2018-08-25T03:15:27.716Z,100356.22
2018-08-25T03:17:55.795Z,100358.83
2018-08-25T03:20:23.921Z,100350.23
2018-08-25T03:22:52.288Z,100353.59
2018-08-25T03:25:20.368Z,100360.96
2018-08-25T03:27:48.553Z,100355.84
2018-08-25T03:30:16.695Z,100358.27
2018-08-25T03:32:44.817Z,100349.68
2018-08-25T03:35:12.951Z,100349.38
2018-08-25T03:37:41.154Z,100348.08
2018-08-25T03:40:09.314Z,100342.35
2018-08-25T03:42:37.444Z,100344.12
2018-08-25T03:45:05.626Z,100338.91
2018-08-25T03:47:33.793Z,100343.45
2018-08-25T03:50:02.061Z,100339.53
2018-08-25T03:52:30.228Z,100341.26
2018-08-25T03:54:58.353Z,100344.67
2018-08-25T03:57:26.497Z,100339.88
2018-08-25T03:59:54.612Z,100333.52
2018-08-25T04:02:22.734Z,100340.73
2018-08-25T04:04:50.912Z,100329.80
2018-08-25T04:07:19.200Z,100326.52
2018-08-25T04:09:47.320Z,100318.86
2018-08-25T04:12:15.459Z,100319.06
2018-08-25T04:14:43.650Z,100321.45
2018-08-25T04:17:11.793Z,100327.22
2018-08-25T04:19:39.942Z,100325.19
2018-08-25T04:22:08.100Z,100321.92
2018-08-25T04:24:36.237Z,100325.88
2018-08-25T04:27:04.425Z,100315.40
2018-08-25T04:29:32.667Z,100322.84
2018-08-25T04:32:00.781Z,100329.83
2018-08-25T04:34:28.880Z,100322.77
2018-08-25T04:36:57.130Z,100323.90
2018-08-25T04:39:25.291Z,100319.44
2018-08-25T04:41:53.488Z,100323.86
2018-08-25T04:44:21.614Z,100323.08
2018-08-25T04:46:49.758Z,100322.53
2018-08-25T04:49:17.945Z,100320.21
2018-08-25T04:51:46.045Z,100319.37
2018-08-25T04:54:14.241Z,100314.66
2018-08-25T04:56:42.380Z,100315.41
2018-08-25T04:59:10.588Z,100319.12
2018-08-25T05:01:38.754Z,100313.30
2018-08-25T05:04:06.896Z,100313.47
2018-08-25T05:06:35.100Z,100307.52
2018-08-25T05:09:03.304Z,100303.14
2018-08-25T05:11:31.482Z,100307.34
2018-08-25T05:13:59.644Z,100313.50
2018-08-25T05:16:27.810Z,100305.31
2018-08-25T05:18:55.993Z,100300.28
2018-08-25T05:21:24.138Z,100302.11
2018-08-25T05:23:52.366Z,100296.60
2018-08-25T05:26:20.610Z,100293.15
2018-08-25T05:28:48.776Z,100283.59
2018-08-25T05:31:16.966Z,100282.55
2018-08-25T05:33:45.136Z,100285.92
2018-08-25T05:36:13.298Z,100283.12
2018-08-25T05:38:41.445Z,100286.38
2018-08-25T05:41:09.776Z,100286.54
2018-08-25T05:43:37.921Z,100289.67
2018-08-25T05:46:07.125Z,100281.84
2018-08-25T05:48:35.320Z,100285.48
2018-08-25T05:51:04.385Z,100299.53
2018-08-25T05:53:32.512Z,100285.89
2018-08-25T05:56:00.673Z,100286.22
2018-08-25T05:58:28.841Z,100289.33
2018-08-25T06:00:57.044Z,100286.83
2018-08-25T06:03:25.136Z,100284.08
2018-08-25T06:05:53.323Z,100284.55
2018-08-25T06:08:21.500Z,100288.56
2018-08-25T06:10:49.679Z,100284.31
2018-08-25T06:13:17.826Z,100289.22
2018-08-25T06:15:45.964Z,100285.48
2018-08-25T06:18:14.070Z,100291.19
2018-08-25T06:20:42.201Z,100292.19
2018-08-25T06:23:10.397Z,100283.81
2018-08-25T06:25:38.567Z,100284.02
2018-08-25T06:28:06.711Z,100281.00
2018-08-25T06:30:34.851Z,100285.02
2018-08-25T06:33:03.003Z,100288.01
2018-08-25T06:35:31.179Z,100285.84
2018-08-25T06:37:59.408Z,100285.00
2018-08-25T06:40:27.524Z,100286.60
2018-08-25T06:42:55.730Z,100283.36
2018-08-25T06:45:23.875Z,100282.41
2018-08-25T06:47:51.988Z,100282.23
2018-08-25T06:50:20.140Z,100282.19
2018-08-25T06:52:48.285Z,100283.12
2018-08-25T06:55:16.541Z,100280.94
2018-08-25T06:57:44.739Z,100280.16
2018-08-25T07:00:12.862Z,100284.74
2018-08-25T07:02:41.030Z,100281.95
2018-08-25T07:05:09.155Z,100285.25
2018-08-25T07:07:37.299Z,100284.63
2018-08-25T07:10:05.478Z,100282.59
2018-08-25T07:12:33.590Z,100279.27
2018-08-25T07:15:01.760Z,100282.98
2018-08-25T07:17:29.865Z,100281.83
2018-08-25T07:19:58.041Z,100281.33
2018-08-25T07:22:26.192Z,100282.89
2018-08-25T07:24:54.388Z,100284.58
2018-08-25T07:27:22.648Z,100286.00
2018-08-25T07:29:50.822Z,100287.53
2018-08-25T07:32:18.995Z,100284.55
2018-08-25T07:34:47.149Z,100280.58
2018-08-25T07:37:15.401Z,100284.22
2018-08-25T07:39:43.590Z,100281.18
2018-08-25T07:42:11.755Z,100286.36
2018-08-25T07:44:39.934Z,100280.71
2018-08-25T07:47:08.104Z,100281.56
2018-08-25T07:49:36.403Z,100283.70
2018-08-25T07:52:04.625Z,100272.27
2018-08-25T07:54:33.376Z,100267.71
2018-08-25T07:57:01.599Z,100275.69
2018-08-25T07:59:29.817Z,100271.61
2018-08-25T08:01:58.097Z,100270.75
2018-08-25T08:04:26.281Z,100269.54
2018-08-25T08:06:54.437Z,100274.78
2018-08-25T08:09:22.629Z,100278.41
2018-08-25T08:11:50.890Z,100277.30
2018-08-25T08:14:19.018Z,100281.14
2018-08-25T08:16:47.238Z,100285.45
2018-08-25T08:19:15.380Z,100279.46
2018-08-25T08:21:43.541Z,100285.80
2018-08-25T08:24:11.753Z,100291.15
2018-08-25T08:26:39.959Z,100289.94
2018-08-25T08:29:08.186Z,100290.06
2018-08-25T08:31:36.345Z,100295.73
2018-08-25T08:34:04.552Z,100294.06
2018-08-25T08:36:32.817Z,100299.17
2018-08-25T08:39:00.998Z,100294.46
2018-08-25T08:41:29.160Z,100299.39
2018-08-25T08:43:57.329Z,100300.09
2018-08-25T08:46:30.849Z,100299.86
2018-08-25T08:48:59.137Z,100302.13
2018-08-25T08:51:27.424Z,100291.87
2018-08-25T08:53:55.546Z,100296.87
2018-08-25T08:56:23.664Z,100300.82
2018-08-25T08:58:51.845Z,100302.48
2018-08-25T09:01:20.099Z,100299.23
2018-08-25T09:03:48.321Z,100307.25
2018-08-25T09:06:16.508Z,100300.88
2018-08-25T09:08:44.688Z,100306.13
2018-08-25T09:11:12.885Z,100310.70
2018-08-25T09:13:41.045Z,100309.27
2018-08-25T09:16:09.159Z,100307.74
2018-08-25T09:18:37.362Z,100307.38
2018-08-25T09:21:05.596Z,100311.86
2018-08-25T09:23:33.790Z,100308.87
2018-08-25T09:26:01.951Z,100305.63
2018-08-25T09:28:30.119Z,100308.75
2018-08-25T09:30:58.338Z,100308.03
2018-08-25T09:33:26.501Z,100302.81
2018-08-25T09:35:54.786Z,100304.34
2018-08-25T09:38:22.826Z,100301.63
2018-08-25T09:40:51.017Z,100298.83
2018-08-25T09:43:20.264Z,100295.05
2018-08-25T09:45:49.161Z,100288.73
2018-08-25T09:48:17.317Z,100287.38
2018-08-25T09:50:45.463Z,100293.81
2018-08-25T09:53:13.630Z,100299.06
2018-08-25T09:55:41.793Z,100305.83
2018-08-25T09:58:10.043Z,100302.08
2018-08-25T10:00:38.372Z,100298.29
2018-08-25T10:03:07.786Z,100292.09
2018-08-25T10:05:35.984Z,100288.19
2018-08-25T10:08:04.187Z,100267.66
2018-08-25T10:10:32.347Z,100272.38
2018-08-25T10:13:00.477Z,100267.45
2018-08-25T10:15:28.619Z,100269.36
2018-08-25T10:17:56.760Z,100263.86
2018-08-25T10:20:24.912Z,100259.79
2018-08-25T10:22:53.138Z,100255.45
2018-08-25T10:25:21.287Z,100262.19
2018-08-25T10:27:49.481Z,100267.06
2018-08-25T10:30:18.237Z,100260.61
2018-08-25T10:32:46.406Z,100259.19
2018-08-25T10:35:14.580Z,100255.14
2018-08-25T10:37:42.782Z,100258.88
2018-08-25T10:40:10.941Z,100240.71
2018-08-25T10:42:39.100Z,100231.80
2018-08-25T10:45:08.176Z,100231.02
2018-08-25T10:47:36.355Z,100223.50
2018-08-25T10:50:04.566Z,100223.06
2018-08-25T10:52:32.758Z,100227.50
2018-08-25T10:55:00.937Z,100224.50
2018-08-25T10:57:29.057Z,100224.06
2018-08-25T10:59:57.221Z,100225.63
2018-08-25T11:02:27.302Z,100226.47
2018-08-25T11:04:55.464Z,100230.86
2018-08-25T11:07:24.287Z,100237.78
2018-08-25T11:09:53.309Z,100230.32
2018-08-25T11:12:21.863Z,100230.98
2018-08-25T11:14:50.001Z,100237.80
2018-08-25T11:17:18.201Z,100231.97
2018-08-25T11:19:46.355Z,100234.61
2018-08-25T11:22:14.528Z,100225.55
2018-08-25T11:24:42.751Z,100233.02
2018-08-25T11:27:10.977Z,100233.25
2018-08-25T11:29:39.108Z,100225.37
2018-08-25T11:32:07.313Z,100229.64
2018-08-25T11:34:35.477Z,100225.01
2018-08-25T11:37:04.248Z,100217.64
2018-08-25T11:39:32.436Z,100216.72
2018-08-25T11:42:00.543Z,100225.25
2018-08-25T11:44:28.672Z,100225.54
2018-08-25T11:46:56.789Z,100219.00
2018-08-25T11:49:24.917Z,100221.98
2018-08-25T11:51:53.093Z,100240.66
2018-08-25T11:54:21.304Z,100242.12
2018-08-25T11:56:49.453Z,100238.38
2018-08-25T11:59:17.649Z,100245.97
2018-08-25T12:01:46.178Z,100243.00
2018-08-25T12:04:14.301Z,100252.45
2018-08-25T12:06:42.585Z,100258.07
2018-08-25T12:09:12.422Z,100263.33
2018-08-25T12:11:40.733Z,100263.17
2018-08-25T12:14:08.877Z,100261.92
2018-08-25T12:16:37.086Z,100263.34
2018-08-25T12:19:05.230Z,100262.55
2018-08-25T12:21:33.347Z,100263.22
2018-08-25T12:24:01.568Z,100257.59
2018-08-25T12:26:29.673Z,100254.59
2018-08-25T12:28:57.823Z,100248.61
2018-08-25T12:31:26.097Z,100252.73
2018-08-25T12:33:54.257Z,100253.56
2018-08-25T12:36:22.457Z,100253.93
2018-08-25T12:38:50.575Z,100266.73
2018-08-25T12:41:19.055Z,100272.59
2018-08-25T13:19:33.321Z,100305.39
2018-08-25T13:22:01.547Z,100311.23
2018-08-25T13:24:29.762Z,100315.94
2018-08-25T13:26:57.947Z,100315.21
2018-08-25T13:29:26.088Z,100323.42
2018-08-25T13:31:54.261Z,100328.89
2018-08-25T13:34:22.453Z,100321.59
2018-08-25T13:36:50.615Z,100325.96
2018-08-25T13:39:18.767Z,100319.48
2018-08-25T13:41:46.953Z,100323.09
2018-08-25T13:44:15.245Z,100321.33
2018-08-25T13:46:43.751Z,100320.00
2018-08-25T13:49:11.932Z,100324.50
2018-08-25T13:51:40.147Z,100333.84
2018-08-25T13:54:08.433Z,100331.80
2018-08-25T13:56:36.568Z,100329.27
2018-08-25T13:59:04.691Z,100329.09
2018-08-25T14:01:32.843Z,100329.59
2018-08-25T14:04:01.060Z,100326.28
2018-08-25T14:06:29.206Z,100328.14
2018-08-25T14:08:57.404Z,100325.99
2018-08-25T14:11:25.717Z,100329.30
2018-08-25T14:13:53.928Z,100331.35
2018-08-25T14:16:22.127Z,100330.97
2018-08-25T14:18:50.252Z,100334.92
2018-08-25T14:21:18.397Z,100336.02
2018-08-25T14:23:46.555Z,100336.98
2018-08-25T14:26:25.698Z,100332.73
2018-08-25T14:28:55.501Z,100342.69
2018-08-25T14:31:23.634Z,100347.58
2018-08-25T14:33:51.809Z,100339.25
2018-08-25T14:36:20.059Z,100343.77
2018-08-25T14:38:48.143Z,100352.63
2018-08-25T14:41:16.265Z,100356.94
2018-08-25T14:43:44.440Z,100361.83
2018-08-25T14:46:12.729Z,100357.14
2018-08-25T14:48:40.862Z,100358.45
2018-08-25T14:51:08.994Z,100360.66
2018-08-25T14:53:37.184Z,100363.34
2018-08-25T14:56:05.432Z,100365.89
2018-08-25T14:58:33.666Z,100361.41
2018-08-25T15:01:01.827Z,100374.83
2018-08-25T15:03:29.979Z,100378.55
2018-08-25T15:05:58.119Z,100388.01
2018-08-25T15:08:26.350Z,100389.06
2018-08-25T15:10:54.525Z,100381.62
2018-08-25T15:13:22.674Z,100382.28
2018-08-25T15:15:50.928Z,100382.56
2018-08-25T15:18:19.097Z,100377.78
2018-08-25T15:20:47.538Z,100384.47
2018-08-25T15:23:16.517Z,100391.34
2018-08-25T15:25:44.716Z,100389.14
2018-08-25T15:28:12.906Z,100384.03
2018-08-25T15:30:41.041Z,100388.28
2018-08-25T15:33:10.383Z,100389.96
2018-08-25T15:35:38.554Z,100397.36
2018-08-25T15:38:06.681Z,100398.33
2018-08-25T15:40:34.810Z,100402.53
2018-08-25T15:43:02.957Z,100406.36
2018-08-25T15:45:31.105Z,100402.20
2018-08-25T15:47:59.241Z,100402.44
2018-08-25T15:50:27.484Z,100411.92
2018-08-25T15:52:55.673Z,100407.60
2018-08-25T15:55:23.809Z,100413.25
2018-08-25T15:57:52.078Z,100413.02
2018-08-25T16:00:20.093Z,100408.35
2018-08-25T16:02:48.277Z,100401.80
2018-08-25T16:05:16.440Z,100410.88
2018-08-25T16:07:45.228Z,100409.67
2018-08-25T16:10:13.352Z,100416.72
2018-08-25T16:12:41.528Z,100415.12
2018-08-25T16:15:09.696Z,100415.56
2018-08-25T16:17:37.833Z,100417.33
2018-08-25T16:20:06.119Z,100422.14
2018-08-25T16:22:34.112Z,100426.12
2018-08-25T16:25:02.304Z,100434.80
2018-08-25T16:27:30.452Z,100430.13
2018-08-25T16:29:58.577Z,100434.98
2018-08-25T16:32:26.716Z,100428.09
2018-08-25T16:34:54.898Z,100431.48
2018-08-25T16:37:23.073Z,100435.83
2018-08-25T16:39:51.273Z,100435.28
2018-08-25T16:42:19.456Z,100438.09
2018-08-25T16:44:47.628Z,100447.26
2018-08-25T16:47:15.759Z,100444.16
2018-08-25T16:49:43.917Z,100444.96
2018-08-25T16:52:12.069Z,100440.87
2018-08-25T16:54:40.231Z,100441.78
2018-08-25T16:57:08.361Z,100445.61
2018-08-25T16:59:36.524Z,100439.63
2018-08-25T17:02:04.715Z,100441.84
2018-08-25T17:04:32.849Z,100442.73
2018-08-25T17:07:00.967Z,100436.27
2018-08-25T17:09:29.116Z,100434.84
2018-08-25T17:11:57.337Z,100439.78
2018-08-25T17:14:25.424Z,100444.63
2018-08-25T17:16:53.585Z,100448.47
2018-08-25T17:19:21.704Z,100455.83
2018-08-25T17:21:49.822Z,100457.50
2018-08-25T17:24:17.976Z,100472.97
2018-08-25T17:26:46.134Z,100469.39
2018-08-25T17:29:14.301Z,100475.32
2018-08-25T17:31:42.580Z,100477.59
2018-08-25T17:34:10.774Z,100479.27
2018-08-25T17:36:38.916Z,100473.33
2018-08-25T17:39:09.823Z,100475.59
2018-08-25T17:41:38.026Z,100478.06
2018-08-25T17:44:06.200Z,100477.10
2018-08-25T17:46:34.330Z,100473.95
2018-08-25T17:49:02.490Z,100482.14
2018-08-25T17:51:30.646Z,100485.09
2018-08-25T17:53:58.804Z,100487.61
2018-08-25T17:56:26.997Z,100489.08
2018-08-25T17:58:55.164Z,100487.79
2018-08-25T18:01:23.324Z,100485.28
2018-08-25T18:03:51.592Z,100492.98
2018-08-25T18:06:19.634Z,100492.42
2018-08-25T18:08:47.768Z,100498.59
2018-08-25T18:11:15.976Z,100501.83
2018-08-25T18:13:44.075Z,100497.62
2018-08-25T18:16:12.192Z,100499.41
2018-08-25T18:18:40.324Z,100501.79
2018-08-25T18:21:08.420Z,100501.16
2018-08-25T18:23:36.572Z,100511.11
2018-08-25T18:26:04.757Z,100503.03
2018-08-25T18:28:32.877Z,100514.78
2018-08-25T18:31:01.033Z,100520.09
2018-08-25T18:33:29.154Z,100516.25
2018-08-25T18:35:57.262Z,100518.31
2018-08-25T18:38:25.417Z,100519.72
2018-08-25T18:40:53.577Z,100524.69
2018-08-25T18:43:21.692Z,100526.80
2018-08-25T18:45:49.819Z,100530.78
2018-08-25T18:48:18.018Z,100535.82
2018-08-25T18:50:46.156Z,100537.80
2018-08-25T18:53:14.466Z,100534.52
2018-08-25T18:55:42.616Z,100541.17
2018-08-25T18:58:10.776Z,100545.12
2018-08-25T19:00:38.900Z,100542.81
2018-08-25T19:03:07.347Z,100557.89
2018-08-25T19:05:35.514Z,100557.70
2018-08-25T19:08:03.669Z,100561.26
2018-08-25T19:10:31.796Z,100566.59
2018-08-25T19:13:00.038Z,100575.48
2018-08-25T19:15:28.746Z,100575.20
2018-08-25T19:17:56.904Z,100577.17
2018-08-25T19:20:25.092Z,100577.77
2018-08-25T19:22:53.259Z,100582.63
2018-08-25T19:25:21.411Z,100582.63
2018-08-25T19:27:49.616Z,100588.23
2018-08-25T19:30:17.748Z,100591.50
2018-08-25T19:32:45.908Z,100598.03
2018-08-25T19:35:14.041Z,100593.75
2018-08-25T19:37:42.205Z,100597.77
2018-08-25T19:40:10.332Z,100600.00
2018-08-25T19:42:38.512Z,100601.41
2018-08-25T19:45:06.715Z,100596.55
2018-08-25T19:47:34.892Z,100601.70
2018-08-25T19:50:03.017Z,100607.77
2018-08-25T19:52:31.260Z,100608.31
2018-08-25T19:54:59.422Z,100609.63
2018-08-25T19:57:27.520Z,100614.89
2018-08-25T19:59:55.686Z,100611.88
2018-08-25T20:02:23.843Z,100612.09
2018-08-25T20:04:51.995Z,100611.73
2018-08-25T20:07:20.139Z,100615.55
2018-08-25T20:09:48.821Z,100614.48
2018-08-25T20:12:16.954Z,100615.84
2018-08-25T20:14:45.098Z,100619.11
2018-08-25T20:17:13.260Z,100625.20
2018-08-25T20:19:41.420Z,100632.58
2018-08-25T20:22:10.204Z,100633.04
2018-08-25T20:24:38.420Z,100635.64
2018-08-25T20:27:06.574Z,100636.84
2018-08-25T20:29:34.714Z,100642.48
2018-08-25T20:32:02.889Z,100635.72
2018-08-25T20:34:31.043Z,100634.70
2018-08-25T20:36:59.284Z,100635.73
2018-08-25T20:39:27.377Z,100634.14
2018-08-25T20:41:55.528Z,100642.64
2018-08-25T20:44:23.704Z,100643.77
2018-08-25T20:46:51.843Z,100644.16
2018-08-25T20:49:19.980Z,100654.53
2018-08-25T20:51:48.137Z,100646.67
2018-08-25T20:54:16.248Z,100647.63
2018-08-25T20:56:44.365Z,100648.80
2018-08-25T20:59:12.488Z,100639.18
2018-08-25T21:01:40.668Z,100645.90
2018-08-25T21:04:08.836Z,100646.92
2018-08-25T21:06:36.995Z,100642.41
2018-08-25T21:09:07.943Z,100643.72
2018-08-25T21:11:36.096Z,100642.67
2018-08-25T21:14:04.266Z,100642.67
2018-08-25T21:16:32.463Z,100641.28
2018-08-25T21:19:00.552Z,100655.67
2018-08-25T21:21:28.713Z,100660.37
2018-08-25T21:23:56.861Z,100661.72
2018-08-25T21:26:25.048Z,100661.92
2018-08-25T21:28:53.336Z,100668.84
2018-08-25T21:31:21.605Z,100668.67
2018-08-25T21:33:49.954Z,100673.56
2018-08-25T21:36:18.173Z,100677.57
2018-08-25T21:38:46.305Z,100679.89
2018-08-25T21:41:14.517Z,100678.21
2018-08-25T21:43:42.696Z,100676.64
2018-08-25T21:46:10.868Z,100683.23
2018-08-25T21:48:39.060Z,100690.42
2018-08-25T21:51:07.267Z,100703.41
2018-08-25T21:53:35.392Z,100702.02
2018-08-25T21:56:03.532Z,100705.39
2018-08-25T21:58:31.709Z,100709.95
2018-08-25T22:00:59.902Z,100710.88
2018-08-25T22:03:28.700Z,100708.94
2018-08-25T22:05:57.579Z,100719.79
2018-08-25T22:08:25.988Z,100709.36
2018-08-25T22:10:54.544Z,100711.17
2018-08-25T22:13:22.991Z,100714.13
2018-08-25T22:15:51.211Z,100714.81
2018-08-25T22:18:19.956Z,100725.28
2018-08-25T22:20:48.115Z,100725.48
2018-08-25T22:23:16.360Z,100720.67
2018-08-25T22:25:44.485Z,100725.82
2018-08-25T22:28:12.625Z,100721.48
2018-08-25T22:30:40.800Z,100723.06
2018-08-25T22:33:08.981Z,100718.39
2018-08-25T22:35:37.127Z,100727.45
2018-08-25T22:38:05.232Z,100727.03
2018-08-25T22:40:33.374Z,100725.34
2018-08-25T22:43:01.489Z,100729.13
2018-08-25T22:45:29.616Z,100729.81
2018-08-25T22:47:57.745Z,100734.66
2018-08-25T22:50:25.903Z,100741.83
2018-08-25T22:52:54.112Z,100738.66
2018-08-25T22:55:23.326Z,100743.48
2018-08-25T22:57:51.804Z,100737.17
2018-08-25T23:00:20.496Z,100742.50
2018-08-25T23:02:48.612Z,100742.13
2018-08-25T23:05:16.740Z,100738.66
2018-08-25T23:07:44.928Z,100740.13
2018-08-25T23:10:13.086Z,100738.28
2018-08-25T23:12:41.216Z,100733.49
2018-08-25T23:15:09.372Z,100736.73
2018-08-25T23:17:37.562Z,100736.11
2018-08-25T23:20:05.725Z,100743.13
2018-08-25T23:22:33.866Z,100743.95
2018-08-25T23:25:02.000Z,100742.42
2018-08-25T23:27:30.162Z,100745.20
2018-08-25T23:29:58.287Z,100743.03
2018-08-25T23:32:26.472Z,100748.91
2018-08-25T23:34:54.657Z,100741.45
2018-08-25T23:37:22.764Z,100744.58
2018-08-25T23:39:50.956Z,100747.44
2018-08-25T23:42:19.123Z,100746.35
2018-08-25T23:44:47.255Z,100751.36
2018-08-25T23:47:15.436Z,100745.51
2018-08-25T23:49:43.656Z,100748.50
2018-08-25T23:52:11.872Z,100753.88
2018-08-25T23:54:40.117Z,100749.20
2018-08-25T23:57:08.244Z,100747.41
2018-08-25T23:59:36.380Z,100753.19
